Time;durP1;ratioP1;P1;durP2;ratioP2;P2;SDS_P1;SDS_P2;PMS_P1;PMS_P2;Temp;Humidity;BMP_temperature;BMP_pressure;BME280_temperature;BME280_humidity;BME280_pressure;Samples;Min_cycle;Max_cycle;Signal;HPM_P1;HPM_P2
2023/10/22 00:00:20;;;;;;;1.33;0.87;;;12.70;99.90;;;;;;4965727;28;20340;-71
2023/10/22 00:02:46;;;;;;;1.27;0.87;;;12.70;99.90;;;;;;4956084;28;20239;-70
2023/10/22 00:05:11;;;;;;;2.23;0.87;;;12.70;99.90;;;;;;4956659;28;20230;-70
2023/10/22 00:07:37;;;;;;;0.90;0.83;;;12.70;99.90;;;;;;4957628;28;20244;-70
2023/10/22 00:10:03;;;;;;;1.00;0.80;;;12.70;99.90;;;;;;4959167;28;20233;-73
2023/10/22 00:12:29;;;;;;;0.70;0.70;;;12.70;99.90;;;;;;4964034;28;20236;-74
2023/10/22 00:14:54;;;;;;;1.20;0.80;;;12.50;99.90;;;;;;4957912;28;20552;-74
2023/10/22 00:17:20;;;;;;;1.30;1.00;;;12.50;99.90;;;;;;4980623;28;20605;-75
2023/10/22 00:19:46;;;;;;;3.10;0.83;;;12.50;99.90;;;;;;4947354;28;20229;-74
2023/10/22 00:22:14;;;;;;;1.20;0.70;;;12.50;99.90;;;;;;4958476;28;20835;-73
2023/10/22 00:24:41;;;;;;;2.80;1.00;;;12.30;99.90;;;;;;4956880;28;20480;-75
2023/10/22 00:27:06;;;;;;;4.13;1.40;;;12.30;99.90;;;;;;4962476;28;20491;-73
2023/10/22 00:29:32;;;;;;;2.30;0.83;;;12.30;99.90;;;;;;4955836;28;20486;-74
2023/10/22 00:31:58;;;;;;;1.20;0.90;;;12.40;99.90;;;;;;4940470;28;20270;-75
2023/10/22 00:34:23;;;;;;;1.17;0.70;;;12.30;99.90;;;;;;4957453;28;20252;-75
2023/10/22 00:36:49;;;;;;;4.10;0.83;;;12.30;99.90;;;;;;4955507;28;20315;-73
2023/10/22 00:39:15;;;;;;;1.80;0.90;;;12.30;99.90;;;;;;4955105;28;20237;-74
2023/10/22 00:41:41;;;;;;;3.20;1.70;;;12.30;99.90;;;;;;4950343;28;20470;-73
2023/10/22 00:44:07;;;;;;;0.87;0.70;;;12.30;99.90;;;;;;4967163;28;20225;-74
2023/10/22 00:46:33;;;;;;;0.90;0.60;;;12.30;99.90;;;;;;4963977;28;20238;-72
2023/10/22 00:48:59;;;;;;;1.17;0.70;;;12.40;99.90;;;;;;4960807;28;20256;-74
2023/10/22 00:51:25;;;;;;;0.60;0.60;;;12.40;99.90;;;;;;4975417;28;20472;-76
2023/10/22 00:53:51;;;;;;;2.20;1.00;;;12.20;99.90;;;;;;4965295;28;20848;-75
2023/10/22 00:56:17;;;;;;;1.47;0.67;;;12.10;99.90;;;;;;4950658;28;20479;-73
2023/10/22 00:58:44;;;;;;;1.73;0.77;;;12.10;99.90;;;;;;4950029;28;20473;-75
2023/10/22 01:01:10;;;;;;;1.73;0.73;;;12.10;99.90;;;;;;4941103;28;20864;-74
2023/10/22 01:03:39;;;;;;;2.00;0.80;;;12.20;99.90;;;;;;4955153;28;21116;-73
2023/10/22 01:06:06;;;;;;;1.93;1.03;;;12.30;99.90;;;;;;4939737;28;20588;-74
2023/10/22 01:08:33;;;;;;;1.53;0.80;;;12.30;99.90;;;;;;4963655;28;20478;-73
2023/10/22 01:11:09;;;;;;;1.83;0.70;;;12.20;99.90;;;;;;4980981;28;20465;-73
2023/10/22 01:13:39;;;;;;;7.07;1.30;;;12.20;99.90;;;;;;4975507;28;20473;-74
2023/10/22 01:16:09;;;;;;;2.10;1.17;;;12.20;99.90;;;;;;4961572;28;21210;-73
2023/10/22 01:18:35;;;;;;;1.13;0.70;;;12.20;99.90;;;;;;4973120;28;20464;-74
2023/10/22 01:21:02;;;;;;;2.60;1.03;;;12.30;99.90;;;;;;4962195;28;20634;-74
2023/10/22 01:23:27;;;;;;;1.00;0.70;;;12.20;99.90;;;;;;4987249;28;21068;-74
2023/10/22 01:25:53;;;;;;;1.00;0.83;;;12.10;99.90;;;;;;4977845;28;20487;-74
2023/10/22 01:28:19;;;;;;;1.90;0.80;;;12.10;99.90;;;;;;4978073;28;20352;-74
2023/10/22 01:30:44;;;;;;;3.63;0.80;;;12.20;99.90;;;;;;4960913;28;20233;-74
2023/10/22 01:33:10;;;;;;;0.90;0.53;;;12.20;99.90;;;;;;4951333;28;20324;-75
2023/10/22 01:35:37;;;;;;;1.40;0.90;;;12.20;99.90;;;;;;4950434;28;20304;-74
2023/10/22 01:38:03;;;;;;;0.70;0.60;;;12.20;99.90;;;;;;4952332;28;20787;-75
2023/10/22 01:40:29;;;;;;;5.13;1.00;;;12.20;99.90;;;;;;4946252;28;20472;-74
2023/10/22 01:42:55;;;;;;;1.63;1.17;;;12.00;99.90;;;;;;4960086;28;20511;-75
2023/10/22 01:45:21;;;;;;;1.27;0.70;;;12.00;99.90;;;;;;4942969;28;20917;-74
2023/10/22 01:47:48;;;;;;;1.63;1.00;;;12.10;99.90;;;;;;4957415;28;20487;-73
2023/10/22 01:50:13;;;;;;;3.20;0.80;;;12.10;99.90;;;;;;4956189;28;20229;-75
2023/10/22 01:52:39;;;;;;;2.80;1.20;;;12.10;99.90;;;;;;4956735;28;20477;-75
2023/10/22 01:55:06;;;;;;;1.60;0.80;;;12.10;99.90;;;;;;4960614;28;20420;-78
2023/10/22 01:57:33;;;;;;;0.80;0.80;;;12.00;99.90;;;;;;4956674;28;20225;-73
2023/10/22 01:59:59;;;;;;;0.60;0.60;;;12.00;99.90;;;;;;4958532;28;20501;-73
2023/10/22 02:02:24;;;;;;;2.27;0.80;;;12.00;99.90;;;;;;4944265;28;21229;-75
2023/10/22 02:04:50;;;;;;;0.60;0.60;;;12.00;99.90;;;;;;4962801;28;20244;-75
2023/10/22 02:07:15;;;;;;;0.97;0.60;;;11.80;99.90;;;;;;4947869;28;20361;-74
2023/10/22 02:09:41;;;;;;;1.97;1.00;;;11.80;99.90;;;;;;4955239;28;20234;-75
2023/10/22 02:12:08;;;;;;;2.63;0.90;;;11.90;99.90;;;;;;4949387;28;20226;-75
2023/10/22 02:14:34;;;;;;;0.80;0.60;;;12.00;99.90;;;;;;4976138;28;20245;-73
2023/10/22 02:17:00;;;;;;;0.70;0.70;;;12.00;99.90;;;;;;4965579;28;20475;-73
2023/10/22 02:19:26;;;;;;;1.33;0.90;;;11.90;99.90;;;;;;4972594;28;20963;-74
2023/10/22 02:21:53;;;;;;;0.77;0.60;;;11.90;99.90;;;;;;4967332;28;20340;-74
2023/10/22 02:24:19;;;;;;;3.40;0.90;;;11.90;99.90;;;;;;4967208;28;20461;-73
2023/10/22 02:26:45;;;;;;;0.90;0.80;;;12.00;99.90;;;;;;4954966;28;20466;-74
2023/10/22 02:29:13;;;;;;;3.10;1.00;;;12.00;99.90;;;;;;4960903;28;20535;-74
2023/10/22 02:31:38;;;;;;;0.80;0.80;;;12.00;99.90;;;;;;4964109;28;20480;-74
2023/10/22 02:34:06;;;;;;;1.43;1.07;;;12.00;99.90;;;;;;4958458;28;20506;-75
2023/10/22 02:36:33;;;;;;;0.87;0.80;;;11.90;99.90;;;;;;4975992;28;20217;-71
2023/10/22 02:38:59;;;;;;;2.60;1.00;;;11.90;99.90;;;;;;4959907;28;20470;-74
2023/10/22 02:41:26;;;;;;;2.63;0.97;;;11.80;99.90;;;;;;4956695;28;20556;-75
2023/10/22 02:43:51;;;;;;;3.13;1.03;;;11.80;99.90;;;;;;4959307;28;20472;-74
2023/10/22 02:46:17;;;;;;;2.10;1.00;;;11.70;99.90;;;;;;4959090;28;20500;-73
2023/10/22 02:48:43;;;;;;;1.43;0.80;;;11.70;99.90;;;;;;4959528;28;20225;-74
2023/10/22 02:51:09;;;;;;;3.07;1.30;;;11.80;99.90;;;;;;4956221;28;20807;-75
2023/10/22 02:53:34;;;;;;;3.43;1.07;;;11.90;99.90;;;;;;4956775;28;20249;-74
2023/10/22 02:56:01;;;;;;;4.30;0.83;;;11.90;99.90;;;;;;4959021;28;20465;-75
2023/10/22 02:58:31;;;;;;;2.70;0.73;;;11.90;99.90;;;;;;4954221;28;20222;-73
2023/10/22 03:01:07;;;;;;;2.50;1.10;;;11.90;99.90;;;;;;4959977;28;20515;-74
2023/10/22 03:03:38;;;;;;;1.00;0.70;;;12.00;99.90;;;;;;4960680;28;20472;-74
2023/10/22 03:06:08;;;;;;;2.30;0.73;;;11.90;99.90;;;;;;4963549;28;20461;-73
2023/10/22 03:08:35;;;;;;;0.63;0.60;;;11.90;99.90;;;;;;4970229;28;20509;-73
2023/10/22 03:11:01;;;;;;;2.63;0.70;;;11.90;99.90;;;;;;4968971;28;20472;-74
2023/10/22 03:13:28;;;;;;;1.73;1.20;;;11.90;99.90;;;;;;4965509;28;20510;-74
2023/10/22 03:15:55;;;;;;;1.80;0.83;;;11.80;99.90;;;;;;4960978;28;20588;-74
2023/10/22 03:18:22;;;;;;;1.63;0.90;;;11.80;99.90;;;;;;4962854;28;20477;-74
2023/10/22 03:20:50;;;;;;;1.70;0.80;;;11.90;99.90;;;;;;4960329;28;20516;-74
2023/10/22 03:23:16;;;;;;;0.80;0.80;;;11.80;99.90;;;;;;4944043;28;20465;-75
2023/10/22 03:25:43;;;;;;;6.60;1.20;;;11.80;99.90;;;;;;4957468;28;20460;-74
2023/10/22 03:28:09;;;;;;;0.77;0.77;;;11.80;99.90;;;;;;4954537;28;20472;-74
2023/10/22 03:30:38;;;;;;;2.80;1.00;;;11.80;99.90;;;;;;4969602;28;20504;-75
2023/10/22 03:33:04;;;;;;;1.47;0.90;;;11.80;99.90;;;;;;4960648;28;21167;-73
2023/10/22 03:35:31;;;;;;;2.10;0.77;;;11.80;99.90;;;;;;4951034;28;20465;-74
2023/10/22 03:37:57;;;;;;;1.00;0.77;;;11.80;99.90;;;;;;4962423;28;20496;-74
2023/10/22 03:40:24;;;;;;;2.23;0.53;;;11.90;99.90;;;;;;4961901;28;20469;-75
2023/10/22 03:42:50;;;;;;;1.80;0.80;;;11.80;99.90;;;;;;4959029;28;20468;-74
2023/10/22 03:45:15;;;;;;;1.10;0.70;;;11.80;99.90;;;;;;4962311;28;20593;-74
2023/10/22 03:47:41;;;;;;;1.87;0.90;;;11.90;99.90;;;;;;4957191;28;20366;-76
2023/10/22 03:50:07;;;;;;;1.97;0.87;;;11.80;99.90;;;;;;4960484;28;20819;-74
2023/10/22 03:52:33;;;;;;;4.40;0.73;;;11.80;99.90;;;;;;4958758;28;20649;-73
2023/10/22 03:54:59;;;;;;;4.60;1.40;;;11.80;99.90;;;;;;4953562;28;20468;-73
2023/10/22 03:57:25;;;;;;;1.80;0.70;;;11.80;99.90;;;;;;4945423;28;20256;-75
2023/10/22 03:59:51;;;;;;;2.10;0.53;;;11.80;99.90;;;;;;4963981;28;20722;-74
2023/10/22 04:02:17;;;;;;;2.17;0.70;;;11.90;99.90;;;;;;4962346;28;20476;-73
2023/10/22 04:04:43;;;;;;;1.93;0.80;;;11.80;99.90;;;;;;4958895;28;20477;-73
2023/10/22 04:07:08;;;;;;;1.63;0.70;;;11.80;99.90;;;;;;4961199;28;20489;-74
2023/10/22 04:09:34;;;;;;;4.27;0.67;;;11.80;99.90;;;;;;4960339;28;20224;-73
2023/10/22 04:12:00;;;;;;;2.10;0.93;;;11.80;99.90;;;;;;4991169;28;20922;-74
2023/10/22 04:14:25;;;;;;;1.53;0.87;;;11.80;99.90;;;;;;4957661;28;20279;-73
2023/10/22 04:16:51;;;;;;;0.80;0.80;;;11.80;99.90;;;;;;4960526;28;20230;-74
2023/10/22 04:19:17;;;;;;;0.83;0.70;;;11.90;99.90;;;;;;4943822;28;20256;-73
2023/10/22 04:21:42;;;;;;;3.80;0.80;;;11.90;99.90;;;;;;4971262;28;20227;-73
2023/10/22 04:24:08;;;;;;;1.33;1.03;;;11.90;99.90;;;;;;4961210;28;20221;-73
2023/10/22 04:26:34;;;;;;;1.87;0.87;;;11.80;99.90;;;;;;4955244;28;20856;-74
2023/10/22 04:29:01;;;;;;;1.33;0.87;;;11.90;99.90;;;;;;4946981;28;20221;-73
2023/10/22 04:31:26;;;;;;;2.63;1.00;;;11.90;99.90;;;;;;4965423;28;20218;-74
2023/10/22 04:33:53;;;;;;;1.27;1.00;;;11.80;99.90;;;;;;4981943;28;20461;-73
2023/10/22 04:36:20;;;;;;;6.07;1.50;;;11.90;99.90;;;;;;4979860;28;20296;-74
2023/10/22 04:38:46;;;;;;;1.27;0.90;;;11.80;99.90;;;;;;4966059;28;20465;-74
2023/10/22 04:41:12;;;;;;;2.70;0.87;;;11.90;99.90;;;;;;4952387;28;20460;-74
2023/10/22 04:43:38;;;;;;;3.13;0.80;;;11.90;99.90;;;;;;4981704;28;20476;-73
2023/10/22 04:46:04;;;;;;;3.50;1.17;;;11.80;99.90;;;;;;4952804;28;20349;-74
2023/10/22 04:48:31;;;;;;;1.07;0.97;;;11.80;99.90;;;;;;4951165;28;20478;-75
2023/10/22 04:50:59;;;;;;;1.23;1.13;;;11.80;99.90;;;;;;4953370;28;20234;-74
2023/10/22 04:53:25;;;;;;;1.40;0.80;;;11.80;99.90;;;;;;4953377;28;20469;-74
2023/10/22 04:55:55;;;;;;;1.90;0.80;;;11.80;99.90;;;;;;4951002;28;21141;-73
2023/10/22 04:58:21;;;;;;;5.50;1.03;;;11.90;99.90;;;;;;4954740;28;20348;-73
2023/10/22 05:00:47;;;;;;;2.20;0.80;;;11.90;99.90;;;;;;4949849;28;20480;-73
2023/10/22 05:03:13;;;;;;;3.73;1.13;;;11.90;99.90;;;;;;4951931;28;20226;-76
2023/10/22 05:05:39;;;;;;;1.13;0.90;;;11.90;99.90;;;;;;4950614;28;20593;-73
2023/10/22 05:08:05;;;;;;;0.80;0.70;;;11.90;99.90;;;;;;4953204;28;20344;-73
2023/10/22 05:10:40;;;;;;;1.40;1.20;;;11.80;99.90;;;;;;4934206;28;20245;-72
2023/10/22 05:13:09;;;;;;;2.50;0.80;;;11.90;99.90;;;;;;4978062;28;20468;-72
2023/10/22 05:15:35;;;;;;;3.30;1.20;;;11.80;99.90;;;;;;4960890;28;20532;-74
2023/10/22 05:18:04;;;;;;;1.10;0.80;;;11.80;99.90;;;;;;4954157;28;20525;-74
2023/10/22 05:20:30;;;;;;;3.43;1.00;;;11.80;99.90;;;;;;4964026;28;20222;-72
2023/10/22 05:22:57;;;;;;;1.33;0.90;;;11.70;99.90;;;;;;4952127;28;20579;-74
2023/10/22 05:25:22;;;;;;;4.67;1.20;;;11.70;99.90;;;;;;4950087;28;20402;-74
2023/10/22 05:27:49;;;;;;;4.20;1.20;;;11.70;99.90;;;;;;4965662;28;21152;-73
2023/10/22 05:30:15;;;;;;;2.57;0.83;;;11.70;99.90;;;;;;4952915;28;20272;-74
2023/10/22 05:32:41;;;;;;;1.67;0.80;;;11.70;99.90;;;;;;4949170;28;20512;-75
2023/10/22 05:35:07;;;;;;;2.30;0.90;;;11.80;99.90;;;;;;4952558;28;21075;-74
2023/10/22 05:37:33;;;;;;;1.30;1.13;;;11.80;99.90;;;;;;4940038;28;20221;-73
2023/10/22 05:39:59;;;;;;;2.40;0.90;;;11.70;99.90;;;;;;4959229;28;20482;-71
2023/10/22 05:42:25;;;;;;;0.70;0.63;;;11.70;99.90;;;;;;4978977;28;20471;-74
2023/10/22 05:44:51;;;;;;;2.77;0.90;;;11.60;99.90;;;;;;4979630;28;20597;-74
2023/10/22 05:47:17;;;;;;;3.00;1.40;;;11.60;99.90;;;;;;4979140;28;21174;-74
2023/10/22 05:49:43;;;;;;;2.40;2.20;;;11.60;99.90;;;;;;4975852;28;20263;-73
2023/10/22 05:52:09;;;;;;;0.77;0.77;;;11.70;99.90;;;;;;4978125;28;20229;-75
2023/10/22 05:54:36;;;;;;;3.63;1.00;;;11.80;99.90;;;;;;4978035;28;20824;-73
2023/10/22 05:57:02;;;;;;;1.37;1.03;;;11.70;99.90;;;;;;4978701;28;21092;-74
2023/10/22 05:59:27;;;;;;;1.87;0.80;;;11.80;99.90;;;;;;4974337;28;20465;-74
2023/10/22 06:01:53;;;;;;;1.33;1.20;;;11.80;99.90;;;;;;4979973;28;20707;-74
2023/10/22 06:04:18;;;;;;;2.20;1.13;;;11.80;99.90;;;;;;4977414;28;20576;-75
2023/10/22 06:06:44;;;;;;;1.93;1.07;;;11.80;99.90;;;;;;4967915;28;20787;-73
2023/10/22 06:09:12;;;;;;;3.97;0.87;;;11.80;99.90;;;;;;4981073;28;20218;-74
2023/10/22 06:11:40;;;;;;;2.77;1.10;;;11.80;99.90;;;;;;4972372;28;20209;-75
2023/10/22 06:14:06;;;;;;;3.50;3.20;;;11.80;99.90;;;;;;4970998;28;20529;-73
2023/10/22 06:16:32;;;;;;;3.13;1.00;;;11.80;99.90;;;;;;4982207;28;20468;-73
2023/10/22 06:18:58;;;;;;;1.47;0.90;;;11.80;99.90;;;;;;4982739;28;20655;-75
2023/10/22 06:21:24;;;;;;;4.93;1.67;;;11.80;99.90;;;;;;4982325;28;20291;-75
2023/10/22 06:23:52;;;;;;;4.83;1.07;;;11.80;99.90;;;;;;4984105;28;20883;-74
2023/10/22 06:26:18;;;;;;;2.67;1.03;;;11.80;99.90;;;;;;4949184;28;20225;-74
2023/10/22 06:28:44;;;;;;;2.30;1.00;;;11.80;99.90;;;;;;4963491;28;20505;-73
2023/10/22 06:31:13;;;;;;;5.60;0.87;;;11.80;99.90;;;;;;4965605;28;20234;-72
2023/10/22 06:33:40;;;;;;;1.23;0.97;;;11.80;99.90;;;;;;4967957;28;20264;-74
2023/10/22 06:36:17;;;;;;;2.30;1.17;;;11.80;99.90;;;;;;4966985;28;21238;-73
2023/10/22 06:38:44;;;;;;;0.80;0.80;;;11.80;99.90;;;;;;4969016;28;20469;-73
2023/10/22 06:41:15;;;;;;;5.00;0.90;;;11.80;99.90;;;;;;4964298;28;20475;-72
2023/10/22 06:43:41;;;;;;;1.57;1.37;;;11.80;99.90;;;;;;4970549;28;20472;-74
2023/10/22 06:46:07;;;;;;;2.27;1.33;;;11.80;99.90;;;;;;4967496;28;20472;-73
2023/10/22 06:48:33;;;;;;;5.77;1.07;;;11.80;99.90;;;;;;4993957;28;20324;-75
2023/10/22 06:50:59;;;;;;;1.10;1.00;;;11.80;99.90;;;;;;4987295;28;20468;-74
2023/10/22 06:53:25;;;;;;;5.53;1.20;;;11.80;99.90;;;;;;4980585;28;20217;-74
2023/10/22 06:55:50;;;;;;;2.03;1.00;;;11.80;99.90;;;;;;4962151;28;20597;-74
2023/10/22 06:58:16;;;;;;;3.00;1.30;;;11.90;99.90;;;;;;4997715;28;20279;-74
2023/10/22 07:00:42;;;;;;;4.37;1.33;;;11.80;99.90;;;;;;4969637;28;20222;-74
2023/10/22 07:03:09;;;;;;;1.17;1.07;;;11.90;99.90;;;;;;4967685;28;20225;-74
2023/10/22 07:05:35;;;;;;;3.27;1.10;;;11.90;99.90;;;;;;4964726;28;20474;-74
2023/10/22 07:08:00;;;;;;;2.87;0.70;;;11.90;99.90;;;;;;4972100;28;20564;-75
2023/10/22 07:10:26;;;;;;;2.40;1.00;;;11.90;99.90;;;;;;4966709;28;20472;-74
2023/10/22 07:12:53;;;;;;;2.40;0.90;;;11.90;99.90;;;;;;4958964;28;20232;-74
2023/10/22 07:15:19;;;;;;;4.97;1.10;;;11.90;99.90;;;;;;4967113;28;20321;-74
2023/10/22 07:17:44;;;;;;;4.03;1.10;;;12.00;99.90;;;;;;4989494;28;20491;-73
2023/10/22 07:20:12;;;;;;;1.60;1.10;;;12.00;99.90;;;;;;4958150;28;20230;-73
2023/10/22 07:22:38;;;;;;;3.33;1.00;;;12.00;99.90;;;;;;4958937;28;20647;-73
2023/10/22 07:25:04;;;;;;;1.10;1.00;;;12.00;99.90;;;;;;4961322;28;20473;-73
2023/10/22 07:27:30;;;;;;;8.93;1.63;;;12.00;99.90;;;;;;4974139;28;20262;-74
2023/10/22 07:29:56;;;;;;;2.73;1.20;;;12.10;99.90;;;;;;4958241;28;20484;-74
2023/10/22 07:32:21;;;;;;;6.23;1.80;;;12.00;99.90;;;;;;4959222;28;20268;-75
2023/10/22 07:34:47;;;;;;;2.73;1.00;;;12.10;99.90;;;;;;4975807;28;20292;-73
2023/10/22 07:37:14;;;;;;;1.30;0.87;;;12.10;99.90;;;;;;4973835;28;20272;-74
2023/10/22 07:39:39;;;;;;;4.43;1.40;;;12.20;99.90;;;;;;4955367;28;20357;-74
2023/10/22 07:42:05;;;;;;;5.87;1.60;;;12.10;99.90;;;;;;4975794;28;21060;-74
2023/10/22 07:44:31;;;;;;;1.43;1.23;;;12.10;99.90;;;;;;4967568;28;20242;-74
2023/10/22 07:46:57;;;;;;;2.70;1.30;;;12.20;99.90;;;;;;4965918;28;20265;-74
2023/10/22 07:49:22;;;;;;;0.90;0.80;;;12.20;99.90;;;;;;4967908;28;20295;-73
2023/10/22 07:51:48;;;;;;;3.20;0.90;;;12.20;99.90;;;;;;4983643;28;20221;-72
2023/10/22 07:54:14;;;;;;;3.00;1.10;;;12.20;99.90;;;;;;4965467;28;20225;-74
2023/10/22 07:56:39;;;;;;;1.67;1.20;;;12.20;99.90;;;;;;4966215;28;20233;-74
2023/10/22 07:59:05;;;;;;;3.90;1.40;;;12.30;99.90;;;;;;5000751;28;20357;-73
2023/10/22 08:01:31;;;;;;;2.83;1.20;;;12.30;99.90;;;;;;4962075;28;20237;-75
2023/10/22 08:03:56;;;;;;;4.17;1.30;;;12.30;99.90;;;;;;4970827;28;20233;-73
2023/10/22 08:06:22;;;;;;;2.57;1.17;;;12.30;99.90;;;;;;4965954;28;20678;-73
2023/10/22 08:08:48;;;;;;;1.97;0.97;;;12.30;99.90;;;;;;4968681;28;20238;-75
2023/10/22 08:11:13;;;;;;;1.33;1.20;;;12.40;99.90;;;;;;4968583;28;20249;-75
2023/10/22 08:13:39;;;;;;;1.73;1.00;;;12.40;99.90;;;;;;4968177;28;20253;-75
2023/10/22 08:16:06;;;;;;;5.23;1.20;;;12.40;99.90;;;;;;4965694;28;20241;-74
2023/10/22 08:18:32;;;;;;;5.83;1.27;;;12.40;99.90;;;;;;4975656;28;20222;-74
2023/10/22 08:21:06;;;;;;;5.70;1.33;;;12.40;99.90;;;;;;4999041;28;20550;-73
2023/10/22 08:23:32;;;;;;;2.00;1.20;;;12.50;99.90;;;;;;4967372;28;20476;-74
2023/10/22 08:25:58;;;;;;;1.13;0.87;;;12.40;99.90;;;;;;4965917;28;21074;-74
2023/10/22 08:28:24;;;;;;;3.90;1.00;;;12.50;99.90;;;;;;4967498;28;20551;-73
2023/10/22 08:30:50;;;;;;;1.37;1.30;;;12.50;99.90;;;;;;4967242;28;20260;-72
2023/10/22 08:33:16;;;;;;;4.00;1.53;;;12.50;99.90;;;;;;4968291;28;20478;-74
2023/10/22 08:35:42;;;;;;;3.20;1.37;;;12.50;99.90;;;;;;4963854;28;21101;-75
2023/10/22 08:38:08;;;;;;;9.00;1.40;;;12.60;99.90;;;;;;4974644;28;20508;-75
2023/10/22 08:40:38;;;;;;;7.47;1.37;;;12.60;99.90;;;;;;4957990;28;20476;-74
2023/10/22 08:43:15;;;;;;;3.97;1.10;;;12.70;99.90;;;;;;4967894;28;20221;-74
2023/10/22 08:45:41;;;;;;;2.70;1.67;;;12.70;99.90;;;;;;4966507;28;20492;-75
2023/10/22 08:48:08;;;;;;;4.30;1.77;;;12.80;99.90;;;;;;4963299;28;20467;-74
2023/10/22 08:50:37;;;;;;;1.00;0.90;;;12.80;99.90;;;;;;4967191;28;20799;-75
2023/10/22 08:53:02;;;;;;;2.80;1.13;;;12.80;99.90;;;;;;4974788;28;20473;-73
2023/10/22 08:55:29;;;;;;;1.90;1.03;;;12.90;99.90;;;;;;4966959;28;21034;-75
2023/10/22 08:57:56;;;;;;;3.20;1.07;;;12.90;99.90;;;;;;4958848;28;20235;-74
2023/10/22 09:00:24;;;;;;;3.73;1.30;;;13.00;99.90;;;;;;4974177;28;21199;-74
2023/10/22 09:02:49;;;;;;;6.13;2.07;;;13.00;99.90;;;;;;4964513;28;20546;-75
2023/10/22 09:05:16;;;;;;;4.27;1.50;;;13.10;99.90;;;;;;4967188;28;20599;-74
2023/10/22 09:07:49;;;;;;;4.63;1.40;;;13.20;99.90;;;;;;4966720;28;20233;-74
2023/10/22 09:10:25;;;;;;;6.83;1.33;;;13.20;99.90;;;;;;4970181;28;20468;-75
2023/10/22 09:12:51;;;;;;;7.63;1.50;;;13.20;99.90;;;;;;4967378;28;20468;-75
2023/10/22 09:15:17;;;;;;;6.93;1.63;;;13.20;99.90;;;;;;4969908;28;20480;-75
2023/10/22 09:17:43;;;;;;;1.80;1.33;;;13.30;99.90;;;;;;4966953;28;20495;-75
2023/10/22 09:20:21;;;;;;;7.90;1.43;;;13.30;99.90;;;;;;4969095;28;20232;-71
2023/10/22 09:22:46;;;;;;;3.80;1.30;;;13.40;99.90;;;;;;4993092;28;20232;-74
2023/10/22 09:25:12;;;;;;;7.23;1.40;;;13.40;99.90;;;;;;4970746;28;20481;-73
2023/10/22 09:27:39;;;;;;;2.00;1.20;;;13.40;99.90;;;;;;4991775;28;20236;-71
2023/10/22 09:30:05;;;;;;;1.87;1.40;;;13.50;99.90;;;;;;4972588;28;20360;-73
2023/10/22 09:32:32;;;;;;;4.03;1.53;;;13.50;99.90;;;;;;4965814;28;20577;-73
2023/10/22 09:35:16;;;;;;;6.60;1.47;;;13.60;99.90;;;;;;4963147;28;20489;-72
2023/10/22 09:37:50;;;;;;;2.07;1.27;;;13.60;99.90;;;;;;4973219;28;20477;-73
2023/10/22 09:40:19;;;;;;;1.83;1.10;;;13.70;99.90;;;;;;4989606;28;20465;-73
2023/10/22 09:42:47;;;;;;;1.40;1.20;;;13.80;99.90;;;;;;4976131;28;20847;-75
2023/10/22 09:45:13;;;;;;;2.40;1.47;;;13.70;99.90;;;;;;4972558;28;20511;-72
2023/10/22 09:47:40;;;;;;;2.77;1.87;;;13.70;99.90;;;;;;4966447;28;21105;-72
2023/10/22 09:50:12;;;;;;;3.17;1.40;;;13.80;99.90;;;;;;4967695;28;20716;-72
2023/10/22 09:52:42;;;;;;;3.83;2.23;;;13.80;99.90;;;;;;4963581;28;20631;-72
2023/10/22 09:55:15;;;;;;;1.83;1.30;;;13.80;99.90;;;;;;4958359;28;20465;-71
2023/10/22 09:57:42;;;;;;;2.70;1.20;;;13.80;99.90;;;;;;4972381;28;20499;-73
2023/10/22 10:00:18;;;;;;;2.57;1.30;;;13.90;99.90;;;;;;4958610;28;20545;-72
2023/10/22 10:02:44;;;;;;;2.03;1.30;;;13.90;99.90;;;;;;4957102;28;20477;-72
2023/10/22 10:05:10;;;;;;;2.33;1.60;;;13.90;99.90;;;;;;4972449;28;20556;-73
2023/10/22 10:07:39;;;;;;;3.30;1.37;;;14.00;99.90;;;;;;4956514;28;20427;-72
2023/10/22 10:10:06;;;;;;;3.33;1.50;;;14.00;99.90;;;;;;4972326;28;20221;-72
2023/10/22 10:12:36;;;;;;;2.27;1.27;;;14.00;99.90;;;;;;4970419;28;20516;-73
2023/10/22 10:15:01;;;;;;;8.33;1.40;;;14.00;99.90;;;;;;4954545;28;20616;-73
2023/10/22 10:17:27;;;;;;;4.10;1.50;;;14.10;99.90;;;;;;4955855;28;20822;-74
2023/10/22 10:20:26;;;;;;;2.80;2.00;;;14.20;99.90;;;;;;4955743;28;20945;-72
2023/10/22 10:23:08;;;;;;;4.73;1.50;;;14.20;99.90;;;;;;4959484;28;20760;-73
2023/10/22 10:25:36;;;;;;;2.20;1.30;;;14.20;99.90;;;;;;4978201;28;20476;-74
2023/10/22 10:28:04;;;;;;;4.60;1.17;;;14.20;99.90;;;;;;4961424;28;21034;-73
2023/10/22 10:30:30;;;;;;;3.07;1.23;;;14.20;99.90;;;;;;4962339;28;21228;-71
2023/10/22 10:32:56;;;;;;;2.37;1.40;;;14.20;99.90;;;;;;4965400;28;20596;-73
2023/10/22 10:35:23;;;;;;;4.80;1.90;;;14.20;99.90;;;;;;4946034;28;20234;-73
2023/10/22 10:38:17;;;;;;;4.80;2.73;;;14.20;99.90;;;;;;4961982;28;20244;-73
2023/10/22 10:40:43;;;;;;;2.73;1.77;;;14.30;99.90;;;;;;4961957;28;20469;-73
2023/10/22 10:43:09;;;;;;;2.23;1.83;;;14.40;99.90;;;;;;4960541;28;20549;-73
2023/10/22 10:45:35;;;;;;;2.10;1.80;;;14.60;99.90;;;;;;4958865;28;21135;-74
2023/10/22 10:48:01;;;;;;;2.27;1.70;;;14.60;99.90;;;;;;4962603;28;20233;-73
2023/10/22 10:50:27;;;;;;;3.57;1.90;;;14.60;99.90;;;;;;4960848;28;20226;-74
2023/10/22 10:52:57;;;;;;;1.70;1.50;;;14.60;99.90;;;;;;4963014;28;20476;-73
2023/10/22 10:55:23;;;;;;;3.80;1.63;;;14.60;99.90;;;;;;4960996;28;20327;-73
2023/10/22 10:57:53;;;;;;;11.10;2.03;;;14.70;99.90;;;;;;4972817;28;20573;-74
2023/10/22 11:00:26;;;;;;;2.80;1.77;;;14.70;99.90;;;;;;4973492;28;20457;-73
2023/10/22 11:02:53;;;;;;;2.00;1.20;;;14.70;99.90;;;;;;4973218;28;20983;-74
2023/10/22 11:05:39;;;;;;;5.57;1.53;;;14.70;99.90;;;;;;4976961;28;20828;-73
2023/10/22 11:08:18;;;;;;;2.40;1.70;;;14.70;99.90;;;;;;4981205;28;20472;-73
2023/10/22 11:10:45;;;;;;;2.73;1.70;;;14.70;99.90;;;;;;4978953;28;20503;-73
2023/10/22 11:13:11;;;;;;;3.37;1.83;;;14.80;99.90;;;;;;4995665;28;20478;-73
2023/10/22 11:15:37;;;;;;;4.20;2.03;;;14.80;99.90;;;;;;4976743;28;20476;-74
2023/10/22 11:18:05;;;;;;;3.87;2.03;;;14.80;99.90;;;;;;4981216;28;20217;-74
2023/10/22 11:20:31;;;;;;;8.47;2.13;;;14.80;99.90;;;;;;4978622;28;20539;-74
2023/10/22 11:22:57;;;;;;;2.90;2.23;;;14.80;99.90;;;;;;4983609;28;20950;-73
2023/10/22 11:25:24;;;;;;;4.53;1.97;;;14.80;99.90;;;;;;4983518;28;21024;-71
2023/10/22 11:27:50;;;;;;;4.63;2.77;;;14.80;99.90;;;;;;4983385;28;20479;-75
2023/10/22 11:30:38;;;;;;;2.73;1.70;;;14.80;99.90;;;;;;5000739;28;20467;-74
2023/10/22 11:33:13;;;;;;;3.00;1.90;;;14.80;99.90;;;;;;4964070;28;20345;-74
2023/10/22 11:35:39;;;;;;;7.23;1.53;;;14.80;99.90;;;;;;4961929;28;20504;-73
2023/10/22 11:38:06;;;;;;;5.20;1.77;;;14.80;99.90;;;;;;4969526;28;20478;-74
2023/10/22 11:40:34;;;;;;;2.23;2.00;;;14.90;99.90;;;;;;4967774;28;20878;-74
2023/10/22 11:43:16;;;;;;;6.30;1.90;;;14.90;99.90;;;;;;4981146;28;20468;-73
2023/10/22 11:45:53;;;;;;;4.60;1.60;;;15.00;99.90;;;;;;4962647;28;20635;-71
2023/10/22 11:48:21;;;;;;;7.83;1.90;;;15.00;99.90;;;;;;4955918;28;20481;-71
2023/10/22 11:50:48;;;;;;;7.40;2.37;;;15.00;99.90;;;;;;4956706;28;20579;-71
2023/10/22 11:53:14;;;;;;;5.13;2.40;;;15.10;99.90;;;;;;4954890;28;20592;-70
2023/10/22 11:55:40;;;;;;;2.10;1.90;;;15.20;99.90;;;;;;4952267;28;20480;-72
2023/10/22 11:58:26;;;;;;;5.63;2.50;;;15.20;99.90;;;;;;4954700;28;20600;-71
2023/10/22 12:00:52;;;;;;;6.50;2.20;;;15.40;99.90;;;;;;4964371;28;20573;-71
2023/10/22 12:03:21;;;;;;;9.40;2.27;;;15.50;99.90;;;;;;4984408;28;20511;-71
2023/10/22 12:05:47;;;;;;;5.80;1.73;;;15.50;99.90;;;;;;4981886;28;20271;-72
2023/10/22 12:08:12;;;;;;;3.40;2.00;;;15.50;99.90;;;;;;4981309;28;21385;-72
2023/10/22 12:10:38;;;;;;;5.17;3.50;;;15.50;99.90;;;;;;4982474;28;20229;-72
2023/10/22 12:13:06;;;;;;;6.50;2.23;;;15.50;99.90;;;;;;4993698;28;20225;-72
2023/10/22 12:15:33;;;;;;;4.80;2.10;;;15.50;99.90;;;;;;4966848;28;20229;-72
2023/10/22 12:17:59;;;;;;;5.17;1.73;;;15.50;99.90;;;;;;4967047;28;20457;-72
2023/10/22 12:20:25;;;;;;;2.57;1.47;;;15.50;99.90;;;;;;4983920;28;20488;-72
2023/10/22 12:22:51;;;;;;;3.17;1.93;;;15.50;99.90;;;;;;4983040;28;20232;-74
2023/10/22 12:25:16;;;;;;;7.53;2.53;;;15.50;99.90;;;;;;4984475;28;20471;-74
2023/10/22 12:27:42;;;;;;;3.40;1.53;;;15.60;99.90;;;;;;4967675;28;20770;-74
2023/10/22 12:30:08;;;;;;;2.83;1.80;;;15.70;99.90;;;;;;4976748;28;20312;-72
2023/10/22 12:32:34;;;;;;;5.90;2.00;;;15.80;99.90;;;;;;4966684;28;20248;-72
2023/10/22 12:35:00;;;;;;;2.70;1.40;;;15.80;99.90;;;;;;4963017;28;20473;-73
2023/10/22 12:37:26;;;;;;;5.77;1.83;;;15.80;99.90;;;;;;4957418;28;20284;-74
2023/10/22 12:39:52;;;;;;;2.77;1.63;;;15.70;99.90;;;;;;4948414;28;20222;-75
2023/10/22 12:42:18;;;;;;;5.33;2.17;;;15.70;99.90;;;;;;4964323;28;20937;-76
2023/10/22 12:44:44;;;;;;;3.77;1.50;;;15.70;99.90;;;;;;4961087;28;20350;-74
2023/10/22 12:47:12;;;;;;;3.90;1.80;;;15.60;99.90;;;;;;4962072;28;20226;-75